createdAt,value
2018-12-13T00:01:00.185Z,56.30
2018-12-13T00:03:28.490Z,55.80
2018-12-13T00:05:56.780Z,55.90
2018-12-13T00:08:25.187Z,55.70
2018-12-13T00:10:53.452Z,55.70
2018-12-13T00:13:21.723Z,55.70
2018-12-13T00:15:50.044Z,55.80
2018-12-13T00:18:18.310Z,55.90
2018-12-13T00:20:46.590Z,55.80
2018-12-13T00:23:14.874Z,55.80
2018-12-13T00:25:43.163Z,55.80
2018-12-13T00:28:11.442Z,55.80
2018-12-13T00:30:39.726Z,55.80
2018-12-13T00:33:08.015Z,55.90
2018-12-13T00:35:36.322Z,56.10
2018-12-13T00:38:04.616Z,56.00
2018-12-13T00:40:32.886Z,55.70
2018-12-13T00:43:01.172Z,55.80
2018-12-13T00:45:29.486Z,55.80
2018-12-13T00:47:57.766Z,55.80
2018-12-13T00:50:26.088Z,55.80
2018-12-13T00:52:54.362Z,55.80
2018-12-13T00:55:22.704Z,55.90
2018-12-13T00:57:50.996Z,55.90
2018-12-13T01:00:19.273Z,55.90
2018-12-13T01:02:47.566Z,55.80
2018-12-13T01:05:15.847Z,56.20
2018-12-13T01:07:44.158Z,55.90
2018-12-13T01:10:12.434Z,55.80
2018-12-13T01:12:40.702Z,56.00
2018-12-13T01:15:08.993Z,56.10
2018-12-13T01:17:37.286Z,56.10
2018-12-13T01:20:05.946Z,55.90
2018-12-13T01:22:34.282Z,56.00
2018-12-13T01:25:02.598Z,55.80
2018-12-13T01:27:30.882Z,55.80
2018-12-13T01:29:59.141Z,56.40
2018-12-13T01:32:27.442Z,55.80
2018-12-13T01:34:55.732Z,56.00
2018-12-13T01:37:24.019Z,55.90
2018-12-13T01:39:52.299Z,55.90
2018-12-13T01:42:20.597Z,55.80
2018-12-13T01:44:48.887Z,55.80
2018-12-13T01:47:17.183Z,55.80
2018-12-13T01:49:45.455Z,55.80
2018-12-13T01:52:13.728Z,56.00
2018-12-13T01:54:42.005Z,56.00
2018-12-13T01:57:10.302Z,56.10
2018-12-13T01:59:38.597Z,55.90
2018-12-13T02:02:06.896Z,55.90
2018-12-13T02:04:35.208Z,55.90
2018-12-13T02:07:03.493Z,56.40
2018-12-13T02:09:31.772Z,55.80
2018-12-13T02:12:00.210Z,55.80
2018-12-13T02:14:28.565Z,55.90
2018-12-13T02:16:56.871Z,55.90
2018-12-13T02:19:25.237Z,55.90
2018-12-13T02:21:53.497Z,55.90
2018-12-13T02:24:21.785Z,55.90
2018-12-13T02:26:50.068Z,55.80
2018-12-13T02:29:18.363Z,55.90
2018-12-13T02:31:46.690Z,55.90
2018-12-13T02:34:14.974Z,56.10
2018-12-13T02:36:43.270Z,56.00
2018-12-13T02:39:11.550Z,56.00
2018-12-13T02:41:39.848Z,55.90
2018-12-13T02:44:08.123Z,55.90
2018-12-13T02:46:36.393Z,55.90
2018-12-13T02:49:08.530Z,56.00
2018-12-13T02:51:36.858Z,56.00
2018-12-13T02:54:05.135Z,56.10
2018-12-13T02:56:33.439Z,56.20
2018-12-13T02:59:01.760Z,56.00
2018-12-13T03:01:30.052Z,55.70
2018-12-13T03:03:58.401Z,56.00
2018-12-13T03:06:26.775Z,55.80
2018-12-13T03:08:55.069Z,55.80
2018-12-13T03:11:23.360Z,55.80
2018-12-13T03:13:51.640Z,56.00
2018-12-13T03:16:19.918Z,56.00
2018-12-13T03:18:48.199Z,55.90
2018-12-13T03:21:16.495Z,55.90
2018-12-13T03:23:44.789Z,55.90
2018-12-13T03:26:13.086Z,55.90
2018-12-13T03:28:41.431Z,55.90
2018-12-13T03:31:09.699Z,55.90
2018-12-13T03:33:37.979Z,56.30
2018-12-13T03:36:06.239Z,56.00
2018-12-13T03:38:34.518Z,56.00
2018-12-13T03:41:02.811Z,56.00
2018-12-13T03:43:31.142Z,55.90
2018-12-13T03:45:59.409Z,55.80
2018-12-13T03:48:27.687Z,55.80
2018-12-13T03:50:55.965Z,56.10
2018-12-13T03:53:24.225Z,56.00
2018-12-13T03:55:52.539Z,55.90
2018-12-13T03:58:20.841Z,55.80
2018-12-13T04:00:49.139Z,55.90
2018-12-13T04:03:17.401Z,55.80
2018-12-13T04:05:45.677Z,55.90
2018-12-13T04:08:13.953Z,55.90
2018-12-13T04:10:42.348Z,56.00
2018-12-13T04:13:10.612Z,56.10
2018-12-13T04:15:38.894Z,56.00
2018-12-13T04:18:07.201Z,56.00
2018-12-13T04:20:35.490Z,55.80
2018-12-13T04:23:03.858Z,55.80
2018-12-13T04:25:32.131Z,55.90
2018-12-13T04:28:00.410Z,56.00
2018-12-13T04:30:28.789Z,56.00
2018-12-13T04:32:57.076Z,56.00
2018-12-13T04:35:25.376Z,56.00
2018-12-13T04:37:53.637Z,56.00
2018-12-13T04:40:21.908Z,55.90
2018-12-13T04:42:50.177Z,56.00
2018-12-13T04:45:18.483Z,55.90
2018-12-13T04:47:46.762Z,55.90
2018-12-13T04:50:15.148Z,56.10
2018-12-13T04:52:43.467Z,56.00
2018-12-13T04:55:11.820Z,56.00
2018-12-13T04:57:40.223Z,56.00
2018-12-13T05:00:08.529Z,56.00
2018-12-13T05:02:36.823Z,56.00
2018-12-13T05:05:05.311Z,55.90
2018-12-13T05:07:33.615Z,56.10
2018-12-13T05:10:01.935Z,56.20
2018-12-13T05:12:30.325Z,56.20
2018-12-13T05:14:58.627Z,55.90
2018-12-13T05:17:26.895Z,56.00
2018-12-13T05:19:55.185Z,55.90
2018-12-13T05:22:23.596Z,55.80
2018-12-13T05:24:51.904Z,55.70
2018-12-13T05:27:20.212Z,55.60
2018-12-13T05:29:48.601Z,55.90
2018-12-13T05:32:16.881Z,55.80
2018-12-13T05:34:45.174Z,55.80
2018-12-13T05:37:13.451Z,55.70
2018-12-13T05:39:41.732Z,55.70
2018-12-13T05:42:10.036Z,55.70
2018-12-13T05:44:38.339Z,55.70
2018-12-13T05:47:06.609Z,55.80
2018-12-13T05:49:34.889Z,55.90
2018-12-13T05:52:03.155Z,55.60
2018-12-13T05:54:31.445Z,55.80
2018-12-13T05:56:59.749Z,55.70
2018-12-13T05:59:28.034Z,55.60
2018-12-13T06:01:56.446Z,55.60
2018-12-13T06:04:24.731Z,55.60
2018-12-13T06:06:53.047Z,55.60
2018-12-13T06:09:21.327Z,55.70
2018-12-13T06:11:49.593Z,55.80
2018-12-13T06:14:17.892Z,55.70
2018-12-13T06:16:46.199Z,55.70
2018-12-13T06:19:14.513Z,55.70
2018-12-13T06:21:42.795Z,55.60
2018-12-13T06:24:11.079Z,55.70
2018-12-13T06:26:39.362Z,55.70
2018-12-13T06:29:07.636Z,55.90
2018-12-13T06:31:35.928Z,55.70
2018-12-13T06:34:04.208Z,55.60
2018-12-13T06:36:32.510Z,55.70
2018-12-13T06:39:00.804Z,55.80
2018-12-13T06:41:29.120Z,55.70
2018-12-13T06:43:57.394Z,55.80
2018-12-13T06:46:25.697Z,55.70
2018-12-13T06:48:54.374Z,55.90
2018-12-13T06:51:22.782Z,55.80
2018-12-13T06:53:51.076Z,55.80
2018-12-13T06:56:19.448Z,55.70
2018-12-13T06:58:47.794Z,55.60
2018-12-13T07:01:16.166Z,55.70
2018-12-13T07:03:44.464Z,55.70
2018-12-13T07:06:13.286Z,56.30
2018-12-13T07:08:41.705Z,55.80
2018-12-13T07:11:10.000Z,56.30
2018-12-13T07:13:38.320Z,55.50
2018-12-13T07:16:06.614Z,55.60
2018-12-13T07:18:34.914Z,55.50
2018-12-13T07:21:03.205Z,55.40
2018-12-13T07:23:31.514Z,55.40
2018-12-13T07:25:59.800Z,55.40
2018-12-13T07:28:29.049Z,55.60
2018-12-13T07:30:57.518Z,55.50
2018-12-13T07:33:25.804Z,56.10
2018-12-13T07:35:54.106Z,55.50
2018-12-13T07:38:22.413Z,55.40
2018-12-13T07:40:50.710Z,55.50
2018-12-13T07:43:19.002Z,55.40
2018-12-13T07:45:47.273Z,55.60
2018-12-13T07:48:15.532Z,55.70
2018-12-13T07:50:43.802Z,55.50
2018-12-13T07:53:12.130Z,55.60
2018-12-13T07:55:40.432Z,55.60
2018-12-13T07:58:08.810Z,55.50
2018-12-13T08:00:37.124Z,55.30
2018-12-13T08:03:05.414Z,55.30
2018-12-13T08:05:33.694Z,55.10
2018-12-13T08:08:01.960Z,55.20
2018-12-13T08:10:30.250Z,55.00
2018-12-13T08:12:58.557Z,54.90
2018-12-13T08:15:26.816Z,54.90
2018-12-13T08:17:55.120Z,54.90
2018-12-13T08:20:23.398Z,54.90
2018-12-13T08:22:51.680Z,54.70
2018-12-13T08:25:20.450Z,54.60
2018-12-13T08:27:48.828Z,55.00
2018-12-13T08:30:17.110Z,54.60
2018-12-13T08:32:45.440Z,54.90
2018-12-13T08:35:14.658Z,54.90
2018-12-13T08:37:44.732Z,54.90
2018-12-13T08:40:13.092Z,54.70
2018-12-13T08:42:41.494Z,54.60
2018-12-13T08:45:09.799Z,54.80
2018-12-13T08:47:38.070Z,54.90
2018-12-13T08:50:06.383Z,54.80
2018-12-13T08:52:34.650Z,54.80
2018-12-13T08:55:02.949Z,54.80
2018-12-13T08:57:31.237Z,54.80
2018-12-13T08:59:59.515Z,54.80
2018-12-13T09:02:27.867Z,54.70
2018-12-13T09:04:56.260Z,54.70
2018-12-13T09:07:24.547Z,54.90
2018-12-13T09:09:52.851Z,54.70
2018-12-13T09:12:21.157Z,54.70
2018-12-13T09:14:49.517Z,54.70
2018-12-13T09:17:17.821Z,54.40
2018-12-13T09:19:46.120Z,54.40
2018-12-13T09:22:14.413Z,54.40
2018-12-13T09:24:42.695Z,54.90
2018-12-13T09:27:11.031Z,54.50
2018-12-13T09:29:39.329Z,54.60
2018-12-13T09:32:07.631Z,54.50
2018-12-13T09:34:35.925Z,52.20
2018-12-13T09:37:04.249Z,49.70
2018-12-13T09:39:32.586Z,47.90
2018-12-13T09:42:00.871Z,48.00
2018-12-13T09:44:29.180Z,48.00
2018-12-13T09:46:57.487Z,49.00
2018-12-13T09:49:25.791Z,49.70
2018-12-13T09:51:54.056Z,50.30
2018-12-13T09:54:22.368Z,50.90
2018-12-13T09:56:50.654Z,51.20
2018-12-13T09:59:18.933Z,51.40
2018-12-13T10:01:47.226Z,51.60
2018-12-13T10:04:15.539Z,51.80
2018-12-13T10:06:43.878Z,52.20
2018-12-13T10:09:12.217Z,52.30
2018-12-13T10:11:40.515Z,52.40
2018-12-13T10:14:08.895Z,52.60
2018-12-13T10:16:37.201Z,52.70
2018-12-13T10:19:05.544Z,52.80
2018-12-13T10:21:33.833Z,52.70
2018-12-13T10:24:02.129Z,52.80
2018-12-13T10:26:30.407Z,52.90
2018-12-13T10:28:58.737Z,53.10
2018-12-13T10:31:27.111Z,53.10
2018-12-13T10:33:55.403Z,53.10
2018-12-13T10:36:23.687Z,53.10
2018-12-13T10:38:53.148Z,53.50
2018-12-13T10:41:21.775Z,53.10
2018-12-13T10:43:50.071Z,53.00
2018-12-13T10:46:18.368Z,53.10
2018-12-13T10:48:46.677Z,53.30
2018-12-13T10:51:14.972Z,53.00
2018-12-13T10:53:43.289Z,53.10
2018-12-13T10:56:11.566Z,53.20
2018-12-13T10:58:39.846Z,53.20
2018-12-13T11:01:48.843Z,53.20
2018-12-13T11:04:17.116Z,53.10
2018-12-13T11:06:45.440Z,53.30
2018-12-13T11:09:13.740Z,53.40
2018-12-13T11:11:42.062Z,53.90
2018-12-13T11:14:10.438Z,53.40
2018-12-13T11:16:38.766Z,53.30
2018-12-13T11:19:07.064Z,53.40
2018-12-13T11:21:35.386Z,53.10
2018-12-13T11:24:03.694Z,53.60
2018-12-13T11:26:32.036Z,53.20
2018-12-13T11:29:27.772Z,53.30
2018-12-13T11:31:56.084Z,53.40
2018-12-13T11:34:24.437Z,53.30
2018-12-13T11:36:52.745Z,53.40
2018-12-13T11:39:21.958Z,53.40
2018-12-13T11:41:50.256Z,53.00
2018-12-13T11:44:18.631Z,53.40
2018-12-13T11:46:47.080Z,53.50
2018-12-13T11:49:15.508Z,53.40
2018-12-13T11:51:43.778Z,53.40
2018-12-13T11:54:23.119Z,53.70
2018-12-13T11:56:51.395Z,53.50
2018-12-13T11:59:19.676Z,53.50
2018-12-13T12:01:47.975Z,53.20
2018-12-13T12:04:22.243Z,53.40
2018-12-13T12:06:50.584Z,53.60
2018-12-13T12:09:18.896Z,53.40
2018-12-13T12:11:47.258Z,53.80
2018-12-13T12:14:15.544Z,53.70
2018-12-13T12:16:43.855Z,53.70
2018-12-13T12:19:12.143Z,53.60
2018-12-13T12:21:40.410Z,53.40
2018-12-13T12:24:08.704Z,53.70
2018-12-13T12:26:37.006Z,53.80
2018-12-13T12:29:05.286Z,53.70
2018-12-13T12:31:33.771Z,53.70
2018-12-13T12:34:02.083Z,53.70
2018-12-13T12:36:30.384Z,53.70
2018-12-13T12:38:58.757Z,53.70
2018-12-13T12:41:27.061Z,53.40
2018-12-13T12:43:55.391Z,53.50
2018-12-13T12:46:23.665Z,53.70
2018-12-13T12:48:51.997Z,53.50
2018-12-13T12:51:20.274Z,53.70
2018-12-13T12:53:48.583Z,53.70
2018-12-13T12:56:16.927Z,54.40
2018-12-13T12:58:45.215Z,53.60
2018-12-13T13:01:13.525Z,53.30
2018-12-13T13:03:41.899Z,53.60
2018-12-13T13:06:10.249Z,53.60
2018-12-13T13:08:38.589Z,53.70
2018-12-13T13:11:06.895Z,53.60
2018-12-13T13:13:35.313Z,53.60
2018-12-13T13:16:03.640Z,53.60
2018-12-13T13:18:31.931Z,53.60
2018-12-13T13:21:00.243Z,53.40
2018-12-13T13:23:28.546Z,53.40
2018-12-13T13:25:56.863Z,53.50
2018-12-13T13:28:25.207Z,53.30
2018-12-13T13:30:53.505Z,53.60
2018-12-13T13:33:21.785Z,53.60
2018-12-13T13:35:50.131Z,53.60
2018-12-13T13:38:18.426Z,53.50
2018-12-13T13:40:46.737Z,53.30
2018-12-13T13:43:15.038Z,53.60
2018-12-13T13:45:43.352Z,53.70
2018-12-13T13:48:11.661Z,53.70
2018-12-13T13:50:39.962Z,53.80
2018-12-13T13:53:08.262Z,53.80
2018-12-13T13:55:36.560Z,52.70
2018-12-13T13:58:04.867Z,52.10
2018-12-13T14:00:33.155Z,52.10
2018-12-13T14:03:01.455Z,52.80
2018-12-13T14:05:29.766Z,52.90
2018-12-13T14:07:58.043Z,53.60
2018-12-13T14:10:26.361Z,53.10
2018-12-13T14:12:55.924Z,53.10
2018-12-13T14:15:24.424Z,53.10
2018-12-13T14:17:52.706Z,53.10
2018-12-13T14:20:20.988Z,53.10
2018-12-13T14:22:49.518Z,53.30
2018-12-13T14:25:17.878Z,53.20
2018-12-13T14:27:46.269Z,53.10
2018-12-13T14:30:14.564Z,53.30
2018-12-13T14:32:42.868Z,53.30
2018-12-13T14:35:11.170Z,53.10
2018-12-13T14:37:39.516Z,53.20
2018-12-13T14:40:07.827Z,52.00
2018-12-13T14:42:36.145Z,52.00
2018-12-13T14:45:05.137Z,51.90
2018-12-13T14:47:33.472Z,51.90
2018-12-13T14:50:01.777Z,52.00
2018-12-13T14:52:30.119Z,52.10
2018-12-13T14:54:58.444Z,52.10
2018-12-13T14:57:26.824Z,52.10
2018-12-13T14:59:55.135Z,52.00
2018-12-13T15:02:23.425Z,52.20
2018-12-13T15:04:53.197Z,52.10
2018-12-13T15:07:21.622Z,52.30
2018-12-13T15:09:51.083Z,52.40
2018-12-13T15:12:19.636Z,52.30
2018-12-13T15:14:47.988Z,52.30
2018-12-13T15:17:16.289Z,52.30
2018-12-13T15:19:44.605Z,52.20
2018-12-13T15:22:12.899Z,52.30
2018-12-13T15:24:41.260Z,52.40
2018-12-13T15:27:09.556Z,52.50
2018-12-13T15:29:37.847Z,52.50
2018-12-13T15:32:05.882Z,52.60
2018-12-13T15:34:34.164Z,52.60
2018-12-13T15:37:02.479Z,52.60
2018-12-13T15:39:30.784Z,52.40
2018-12-13T15:41:59.080Z,52.50
2018-12-13T15:44:27.504Z,51.90
2018-12-13T15:46:55.809Z,50.90
2018-12-13T15:49:24.421Z,50.10
2018-12-13T15:51:52.697Z,49.90
2018-12-13T15:54:20.989Z,50.00
2018-12-13T15:56:49.306Z,50.00
2018-12-13T15:59:17.707Z,50.00
2018-12-13T16:01:46.053Z,50.00
2018-12-13T16:04:14.345Z,50.00
2018-12-13T16:06:42.691Z,49.50
2018-12-13T16:09:11.003Z,48.50
2018-12-13T16:11:39.303Z,48.60
2018-12-13T16:14:07.615Z,48.60
2018-12-13T16:16:35.947Z,49.10
2018-12-13T16:19:04.269Z,49.20
2018-12-13T16:21:32.619Z,49.80
2018-12-13T16:24:00.917Z,50.00
2018-12-13T16:26:29.238Z,50.30
2018-12-13T16:28:57.531Z,50.40
2018-12-13T16:31:25.841Z,51.30
2018-12-13T16:33:54.274Z,50.80
2018-12-13T16:36:22.632Z,50.20
2018-12-13T16:38:50.958Z,49.20
2018-12-13T16:41:19.300Z,49.90
2018-12-13T16:43:47.653Z,50.40
2018-12-13T16:46:15.977Z,51.20
2018-12-13T16:48:45.061Z,50.80
2018-12-13T16:51:13.603Z,51.00
2018-12-13T16:53:41.923Z,51.10
2018-12-13T16:56:10.223Z,51.10
2018-12-13T16:58:38.568Z,51.30
2018-12-13T17:01:06.879Z,51.50
2018-12-13T17:03:39.888Z,51.50
2018-12-13T17:06:08.251Z,51.40
2018-12-13T17:08:36.607Z,51.60
2018-12-13T17:11:04.951Z,51.60
2018-12-13T17:13:33.270Z,51.70
2018-12-13T17:16:01.591Z,51.80
2018-12-13T17:18:36.481Z,51.70
2018-12-13T17:21:04.795Z,51.90
2018-12-13T17:23:33.102Z,52.00
2018-12-13T17:26:01.426Z,52.70
2018-12-13T17:28:30.485Z,52.10
2018-12-13T17:30:58.801Z,52.30
2018-12-13T17:33:27.142Z,52.30
2018-12-13T17:35:55.501Z,52.20
2018-12-13T17:38:23.812Z,52.90
2018-12-13T17:40:52.151Z,52.70
2018-12-13T17:43:20.445Z,52.40
2018-12-13T17:45:48.752Z,52.40
2018-12-13T17:48:17.080Z,52.60
2018-12-13T17:50:45.379Z,52.50
2018-12-13T17:53:13.696Z,52.40
2018-12-13T17:55:41.997Z,52.50
2018-12-13T17:58:10.292Z,52.30
2018-12-13T18:00:38.627Z,52.50
2018-12-13T18:03:07.011Z,52.50
2018-12-13T18:05:35.337Z,52.50
2018-12-13T18:08:03.697Z,52.50
2018-12-13T18:10:32.045Z,52.50
2018-12-13T18:13:00.409Z,52.60
2018-12-13T18:15:28.798Z,52.60
2018-12-13T18:17:57.160Z,52.50
2018-12-13T18:20:25.536Z,52.60
2018-12-13T18:22:54.761Z,52.70
2018-12-13T18:25:23.103Z,52.70
2018-12-13T18:27:51.469Z,52.60
2018-12-13T18:30:19.844Z,52.70
2018-12-13T18:32:48.209Z,52.70
2018-12-13T18:35:16.545Z,52.70
2018-12-13T18:37:44.873Z,52.60
2018-12-13T18:40:13.205Z,52.60
2018-12-13T18:42:41.554Z,52.80
2018-12-13T18:45:10.864Z,52.80
2018-12-13T18:47:39.274Z,52.80
2018-12-13T18:50:08.123Z,52.90
2018-12-13T18:52:36.558Z,52.80
2018-12-13T18:55:04.980Z,52.90
2018-12-13T18:57:33.341Z,52.80
2018-12-13T19:00:01.849Z,53.00
2018-12-13T19:02:30.919Z,52.90
2018-12-13T19:04:59.326Z,52.90
2018-12-13T19:07:27.776Z,53.00
2018-12-13T19:09:57.283Z,53.00
2018-12-13T19:12:25.694Z,53.00
2018-12-13T19:14:54.107Z,53.10
2018-12-13T19:17:22.587Z,53.10
2018-12-13T19:19:51.105Z,53.10
2018-12-13T19:22:20.569Z,53.20
2018-12-13T19:24:48.973Z,53.30
2018-12-13T19:27:18.256Z,53.20
2018-12-13T19:29:46.667Z,53.20
2018-12-13T19:32:15.725Z,53.20
2018-12-13T19:34:44.183Z,53.10
2018-12-13T19:37:12.961Z,53.10
2018-12-13T19:39:41.473Z,53.30
2018-12-13T19:42:09.940Z,53.20
2018-12-13T19:44:39.025Z,53.00
2018-12-13T19:47:07.468Z,53.10
2018-12-13T19:49:35.879Z,53.20
2018-12-13T19:52:04.364Z,53.10
2018-12-13T19:54:32.793Z,53.00
2018-12-13T19:57:01.502Z,53.00
2018-12-13T19:59:29.942Z,53.10
2018-12-13T20:01:59.049Z,53.20
2018-12-13T20:04:27.478Z,53.10
2018-12-13T20:06:55.939Z,53.10
2018-12-13T20:09:24.619Z,53.10
2018-12-13T20:11:53.575Z,53.10
2018-12-13T20:14:22.009Z,53.10
2018-12-13T20:16:50.437Z,53.10
2018-12-13T20:19:18.897Z,53.10
2018-12-13T20:21:47.388Z,53.30
2018-12-13T20:24:15.835Z,53.30
2018-12-13T20:26:44.364Z,53.20
2018-12-13T20:29:12.828Z,53.20
2018-12-13T20:31:41.268Z,53.30
2018-12-13T20:34:10.365Z,53.20
2018-12-13T20:36:38.794Z,53.00
2018-12-13T20:39:09.886Z,53.30
2018-12-13T20:41:40.084Z,53.40
2018-12-13T20:44:09.517Z,53.40
2018-12-13T20:46:38.305Z,53.10
2018-12-13T20:49:07.149Z,53.20
2018-12-13T20:51:37.140Z,53.30
2018-12-13T20:54:05.584Z,53.30
2018-12-13T20:56:34.013Z,53.10
2018-12-13T20:59:03.509Z,53.10
2018-12-13T21:01:32.823Z,53.50
2018-12-13T21:04:01.310Z,53.50
2018-12-13T21:06:30.452Z,53.50
2018-12-13T21:08:58.882Z,53.50
2018-12-13T21:11:27.307Z,53.50
2018-12-13T21:13:55.963Z,53.50
2018-12-13T21:16:24.512Z,53.50
2018-12-13T21:18:54.052Z,53.50
2018-12-13T21:21:22.541Z,53.60
2018-12-13T21:23:51.235Z,53.50
2018-12-13T21:26:19.695Z,53.60
2018-12-13T21:28:48.179Z,53.50
2018-12-13T21:31:16.603Z,53.50
2018-12-13T21:33:45.026Z,54.00
2018-12-13T21:36:13.525Z,53.40
2018-12-13T21:38:44.200Z,53.40
2018-12-13T21:41:13.703Z,53.50
2018-12-13T21:43:42.319Z,53.60
2018-12-13T21:46:10.801Z,53.50
2018-12-13T21:48:39.436Z,53.50
2018-12-13T21:51:07.901Z,53.50
2018-12-13T21:53:36.303Z,53.50
2018-12-13T21:56:04.745Z,53.50
2018-12-13T21:58:33.283Z,53.50
2018-12-13T22:01:01.668Z,54.20
2018-12-13T22:03:31.079Z,53.50
2018-12-13T22:05:59.486Z,53.40
2018-12-13T22:08:27.834Z,53.60
2018-12-13T22:10:56.515Z,53.60
2018-12-13T22:13:24.881Z,53.50
2018-12-13T22:15:53.231Z,53.50
2018-12-13T22:18:21.661Z,53.50
2018-12-13T22:20:50.003Z,53.60
2018-12-13T22:23:18.319Z,53.60
2018-12-13T22:25:46.710Z,53.60
2018-12-13T22:28:15.175Z,53.60
2018-12-13T22:30:43.512Z,53.60
2018-12-13T22:33:11.865Z,53.60
2018-12-13T22:35:40.246Z,53.60
2018-12-13T22:38:08.547Z,53.60
2018-12-13T22:40:36.887Z,53.90
2018-12-13T22:43:05.219Z,53.90
2018-12-13T22:45:33.523Z,53.70
2018-12-13T22:48:01.849Z,53.70
2018-12-13T22:50:30.127Z,53.70
2018-12-13T22:52:58.457Z,53.70
2018-12-13T22:55:26.785Z,53.70
2018-12-13T22:57:55.147Z,53.60
2018-12-13T23:00:23.636Z,53.60
2018-12-13T23:02:51.983Z,53.80
2018-12-13T23:05:20.281Z,54.50
2018-12-13T23:07:48.619Z,53.80
2018-12-13T23:10:16.941Z,53.70
2018-12-13T23:12:45.295Z,53.70
2018-12-13T23:15:13.637Z,53.80
2018-12-13T23:17:41.983Z,53.70
2018-12-13T23:20:10.265Z,53.90
2018-12-13T23:22:38.575Z,54.00
2018-12-13T23:25:06.944Z,53.90
2018-12-13T23:27:35.219Z,53.70
2018-12-13T23:30:03.972Z,53.90
2018-12-13T23:32:32.283Z,54.50
2018-12-13T23:35:00.643Z,53.80
2018-12-13T23:37:28.967Z,53.70
2018-12-13T23:39:57.269Z,53.70
2018-12-13T23:42:25.555Z,53.90
2018-12-13T23:44:53.823Z,53.90
2018-12-13T23:47:22.107Z,53.80
2018-12-13T23:49:50.399Z,53.80
2018-12-13T23:52:18.711Z,53.80
2018-12-13T23:54:47.006Z,53.80
2018-12-13T23:57:15.342Z,53.80
2018-12-13T23:59:43.742Z,54.00
